Time;durP1;ratioP1;P1;durP2;ratioP2;P2;SDS_P1;SDS_P2;PMS_P1;PMS_P2;Temp;Humidity;BMP_temperature;BMP_pressure;BME280_temperature;BME280_humidity;BME280_pressure;Samples;Min_cycle;Max_cycle;Signal;HPM_P1;HPM_P2
2022/10/18 00:01:30;;;;;;;6.78;6.10;;;;;;;-146.19;100.00;65364.44;10368471;28;20057;-62
2022/10/18 00:06:49;;;;;;;6.50;5.90;;;;;;;-146.19;100.00;65364.44;10386956;28;20096;-62
2022/10/18 00:12:08;;;;;;;6.40;5.88;;;;;;;-146.19;100.00;65364.44;10387020;28;20049;-62
2022/10/18 00:17:27;;;;;;;6.00;5.50;;;;;;;-146.19;100.00;65364.44;10379533;28;20096;-62
2022/10/18 00:22:47;;;;;;;6.50;5.70;;;;;;;-146.19;100.00;65364.44;10385970;28;20477;-62
2022/10/18 00:28:06;;;;;;;7.20;5.70;;;;;;;-146.19;100.00;65364.44;10393179;28;20045;-62
2022/10/18 00:33:26;;;;;;;5.97;5.47;;;;;;;-146.19;100.00;65364.44;10381861;28;20520;-62
2022/10/18 00:38:46;;;;;;;6.60;6.00;;;;;;;-146.19;100.00;65364.44;10385954;28;20050;-62
2022/10/18 00:44:25;;;;;;;6.25;5.65;;;;;;;-146.19;100.00;65364.44;10381154;28;20096;-62
2022/10/18 00:49:49;;;;;;;6.63;6.00;;;;;;;-146.19;100.00;65364.44;10372681;28;20113;-62
2022/10/18 00:55:09;;;;;;;5.60;5.10;;;;;;;-146.19;100.00;65364.44;10357549;28;20054;-62
2022/10/18 01:00:28;;;;;;;6.50;5.80;;;;;;;-146.19;100.00;65364.44;10377261;28;20090;-62
2022/10/18 01:05:48;;;;;;;6.50;5.90;;;;;;;-146.19;100.00;65364.44;10385436;28;20096;-62
2022/10/18 01:11:21;;;;;;;6.22;5.72;;;;;;;-146.19;100.00;65364.44;10385216;28;20057;-62
2022/10/18 01:16:58;;;;;;;6.68;6.03;;;;;;;-146.19;100.00;65364.44;10385052;28;20053;-62
2022/10/18 01:22:38;;;;;;;6.13;5.53;;;;;;;-146.19;100.00;65364.44;10359588;28;20038;-62
2022/10/18 01:28:09;;;;;;;6.00;5.50;;;;;;;-146.19;100.00;65364.44;10377159;28;20049;-62
2022/10/18 01:33:33;;;;;;;5.75;5.25;;;;;;;-146.19;100.00;65364.44;10371034;28;20049;-62
2022/10/18 01:38:55;;;;;;;5.90;5.30;;;;;;;-146.19;100.00;65364.44;10374276;28;20119;-62
2022/10/18 01:44:18;;;;;;;5.72;5.22;;;;;;;-146.19;100.00;65364.44;10400125;28;20536;-59
2022/10/18 01:49:38;;;;;;;5.75;5.25;;;;;;;-146.19;100.00;65364.44;10371540;28;20081;-61
2022/10/18 01:54:59;;;;;;;6.13;5.38;;;;;;;-146.19;100.00;65364.44;10391773;28;20102;-62
2022/10/18 02:00:23;;;;;;;5.88;5.28;;;;;;;-146.19;100.00;65364.44;10378656;28;20055;-62
2022/10/18 02:05:45;;;;;;;6.00;5.50;;;;;;;-146.19;100.00;65364.44;10373274;28;20052;-62
2022/10/18 02:11:11;;;;;;;5.95;5.45;;;;;;;-146.19;100.00;65364.44;10377735;28;20049;-62
2022/10/18 02:16:38;;;;;;;5.47;4.95;;;;;;;-146.19;100.00;65364.44;10380943;28;20042;-62
2022/10/18 02:21:58;;;;;;;5.70;5.20;;;;;;;-146.19;100.00;65364.44;10377629;28;20050;-62
2022/10/18 02:27:17;;;;;;;5.70;5.20;;;;;;;-146.19;100.00;65364.44;10376771;28;20053;-62
2022/10/18 02:32:45;;;;;;;5.70;5.20;;;;;;;-146.19;100.00;65364.44;10393904;28;20461;-62
2022/10/18 02:38:06;;;;;;;5.60;5.10;;;;;;;-146.19;100.00;65364.44;10387951;28;20513;-62
2022/10/18 02:43:26;;;;;;;5.15;4.70;;;;;;;-146.19;100.00;65364.44;10392923;28;20050;-62
2022/10/18 02:48:45;;;;;;;5.60;5.10;;;;;;;-146.19;100.00;65364.44;10389124;28;20049;-62
2022/10/18 02:54:04;;;;;;;5.75;5.20;;;;;;;-146.19;100.00;65364.44;10389899;28;20053;-62
2022/10/18 02:59:24;;;;;;;5.68;5.18;;;;;;;-146.19;100.00;65364.44;10387267;28;20041;-62
2022/10/18 03:04:43;;;;;;;5.72;5.22;;;;;;;-146.19;100.00;65364.44;10389301;28;20053;-62
2022/10/18 03:10:03;;;;;;;5.68;5.20;;;;;;;-146.19;100.00;65364.44;10389331;28;20100;-62
2022/10/18 03:15:22;;;;;;;5.90;5.40;;;;;;;-146.19;100.00;65364.44;10401747;28;20041;-62
2022/10/18 03:20:41;;;;;;;6.13;5.60;;;;;;;-146.19;100.00;65364.44;10388469;28;20038;-62
2022/10/18 03:26:01;;;;;;;6.10;5.50;;;;;;;-146.19;100.00;65364.44;10374689;28;20042;-62
2022/10/18 03:31:20;;;;;;;5.50;4.97;;;;;;;-146.19;100.00;65364.44;10390938;28;20048;-62
2022/10/18 03:36:40;;;;;;;5.90;5.40;;;;;;;-146.19;100.00;65364.44;10377217;28;20041;-62
2022/10/18 03:41:59;;;;;;;6.00;5.40;;;;;;;-146.19;100.00;65364.44;10378121;28;20044;-62
2022/10/18 03:47:19;;;;;;;6.07;5.45;;;;;;;-146.19;100.00;65364.44;10387941;28;20042;-62
2022/10/18 03:52:38;;;;;;;5.45;4.95;;;;;;;-146.19;100.00;65364.44;10387330;28;20038;-62
2022/10/18 03:57:57;;;;;;;5.90;5.40;;;;;;;-146.19;100.00;65364.44;10388789;28;20056;-62
2022/10/18 04:03:17;;;;;;;5.82;5.32;;;;;;;-146.19;100.00;65364.44;10376963;28;20100;-62
2022/10/18 04:08:37;;;;;;;6.13;5.57;;;;;;;-146.19;100.00;65364.44;10380776;28;20048;-62
2022/10/18 04:13:56;;;;;;;6.57;5.90;;;;;;;-146.19;100.00;65364.44;10399438;28;20046;-62
2022/10/18 04:19:16;;;;;;;6.07;5.57;;;;;;;-146.19;100.00;65364.44;10380810;28;20045;-62
2022/10/18 04:24:35;;;;;;;5.30;4.90;;;;;;;-146.19;100.00;65364.44;10373125;28;20489;-63
2022/10/18 04:29:55;;;;;;;5.43;4.97;;;;;;;-146.19;100.00;65364.44;10393033;28;20046;-62
2022/10/18 04:35:14;;;;;;;5.70;5.20;;;;;;;-146.19;100.00;65364.44;10383541;28;20604;-62
2022/10/18 04:40:33;;;;;;;5.78;5.18;;;;;;;-146.19;100.00;65364.44;10384966;28;20091;-62
2022/10/18 04:45:53;;;;;;;6.03;5.00;;;;;;;-146.19;100.00;65364.44;10385689;28;20100;-62
2022/10/18 04:51:12;;;;;;;6.28;4.90;;;;;;;-146.19;100.00;65364.44;10385566;28;20042;-62
2022/10/18 04:56:31;;;;;;;5.40;4.90;;;;;;;-146.19;100.00;65364.44;10392296;28;20053;-61
2022/10/18 05:01:51;;;;;;;6.00;4.88;;;;;;;-146.19;100.00;65364.44;10365762;28;20053;-62
2022/10/18 05:07:10;;;;;;;5.60;4.72;;;;;;;-146.19;100.00;65364.44;10373727;28;20049;-63
2022/10/18 05:12:30;;;;;;;6.90;5.07;;;;;;;-146.19;100.00;65364.44;10392012;28;20049;-63
2022/10/18 05:17:49;;;;;;;7.40;6.03;;;;;;;-146.19;100.00;65364.44;10380038;28;20042;-62
2022/10/18 05:23:09;;;;;;;9.57;6.28;;;;;;;-146.19;100.00;65364.44;10392251;28;20049;-62
2022/10/18 05:28:29;;;;;;;14.32;6.57;;;;;;;-146.19;100.00;65364.44;10389306;28;20046;-62
2022/10/18 05:33:48;;;;;;;11.18;6.90;;;;;;;-146.19;100.00;65364.44;10388828;28;20038;-62
2022/10/18 05:39:08;;;;;;;8.70;6.35;;;;;;;-146.19;100.00;65364.44;10376390;28;20374;-62
2022/10/18 05:44:27;;;;;;;9.52;6.25;;;;;;;-146.19;100.00;65364.44;10392361;28;20056;-62
2022/10/18 05:49:46;;;;;;;7.20;6.05;;;;;;;-146.19;100.00;65364.44;10391912;28;20050;-62
2022/10/18 05:55:06;;;;;;;8.30;5.88;;;;;;;-146.19;100.00;65364.44;10388725;28;20045;-63
2022/10/18 06:00:26;;;;;;;8.40;6.32;;;;;;;-146.19;100.00;65364.44;10377139;28;20054;-62
2022/10/18 06:05:45;;;;;;;7.50;5.65;;;;;;;-146.19;100.00;65364.44;10391766;28;20049;-63
2022/10/18 06:11:13;;;;;;;8.60;5.43;;;;;;;-146.19;100.00;65364.44;10387659;28;20046;-63
2022/10/18 06:16:32;;;;;;;8.00;5.72;;;;;;;-146.19;100.00;65364.44;10379576;28;20092;-62
2022/10/18 06:21:51;;;;;;;9.88;6.18;;;;;;;-146.19;100.00;65364.44;10378158;28;20050;-62
2022/10/18 06:27:11;;;;;;;8.23;5.53;;;;;;;-146.19;100.00;65364.44;10391260;28;20054;-63
2022/10/18 06:32:30;;;;;;;6.90;5.43;;;;;;;-146.19;100.00;65364.44;10378333;28;20057;-63
2022/10/18 06:37:49;;;;;;;6.40;5.15;;;;;;;-146.19;100.00;65364.44;10382337;28;20034;-63
2022/10/18 06:43:08;;;;;;;9.95;6.10;;;;;;;-146.19;100.00;65364.44;10392546;28;20093;-63
2022/10/18 06:48:28;;;;;;;7.03;5.72;;;;;;;-146.19;100.00;65364.44;10390122;28;20092;-63
2022/10/18 06:53:47;;;;;;;8.00;5.63;;;;;;;-146.19;100.00;65364.44;10389810;28;20401;-63
2022/10/18 06:59:07;;;;;;;7.13;5.90;;;;;;;-146.19;100.00;65364.44;10385617;28;20100;-63
2022/10/18 07:04:28;;;;;;;6.45;5.47;;;;;;;-146.19;100.00;65364.44;10389646;28;20050;-61
2022/10/18 07:09:48;;;;;;;6.95;5.43;;;;;;;-146.19;100.00;65364.44;10379814;28;20047;-64
2022/10/18 07:15:07;;;;;;;8.05;5.82;;;;;;;-146.19;100.00;65364.44;10393460;28;20099;-64
2022/10/18 07:20:27;;;;;;;7.07;5.15;;;;;;;-146.19;100.00;65364.44;10389276;28;20453;-64
2022/10/18 07:25:47;;;;;;;6.00;5.40;;;;;;;-146.19;100.00;65364.44;10373330;28;20052;-64
2022/10/18 07:31:06;;;;;;;5.40;4.90;;;;;;;-146.19;100.00;65364.44;10388128;28;20048;-63
2022/10/18 07:36:27;;;;;;;5.78;5.18;;;;;;;-146.19;100.00;65364.44;10374708;28;20050;-64
2022/10/18 07:41:46;;;;;;;5.70;5.20;;;;;;;-146.19;100.00;65364.44;10399684;28;20054;-63
2022/10/18 07:47:06;;;;;;;5.50;4.93;;;;;;;-146.19;100.00;65364.44;10387821;28;20042;-63
2022/10/18 07:52:26;;;;;;;5.38;4.88;;;;;;;-146.19;100.00;65364.44;10387941;28;20048;-63
2022/10/18 07:57:45;;;;;;;5.85;5.13;;;;;;;-146.19;100.00;65364.44;10392210;28;20049;-63
2022/10/18 08:03:05;;;;;;;6.88;4.88;;;;;;;-146.19;100.00;65364.44;10384293;28;20037;-63
2022/10/18 08:08:25;;;;;;;5.85;5.00;;;;;;;-146.19;100.00;65364.44;10387194;28;20418;-63
2022/10/18 08:13:45;;;;;;;5.38;4.43;;;;;;;-146.19;100.00;65364.44;10394958;28;20042;-62
2022/10/18 08:19:05;;;;;;;6.43;4.95;;;;;;;-146.19;100.00;65364.44;10386681;28;20409;-63
2022/10/18 08:24:25;;;;;;;4.93;4.40;;;;;;;-146.19;100.00;65364.44;10377018;28;20076;-63
2022/10/18 08:29:44;;;;;;;5.68;5.05;;;;;;;-146.19;100.00;65364.44;10393553;28;20070;-63
2022/10/18 08:35:04;;;;;;;5.30;4.63;;;;;;;-146.19;100.00;65364.44;10379296;28;20042;-63
2022/10/18 08:40:25;;;;;;;5.22;4.53;;;;;;;-146.19;100.00;65364.44;10392688;28;20045;-63
2022/10/18 08:45:44;;;;;;;6.22;4.65;;;;;;;-146.19;100.00;65364.44;10386435;28;20041;-62
2022/10/18 08:51:10;;;;;;;6.45;4.70;;;;;;;-146.19;100.00;65364.44;10372204;28;20116;-63
2022/10/18 08:56:30;;;;;;;5.25;4.57;;;;;;;-146.19;100.00;65364.44;10371402;28;20046;-63
2022/10/18 09:02:27;;;;;;;5.05;4.45;;;;;;;-146.19;100.00;65364.44;10358463;28;20075;-63
2022/10/18 09:08:18;;;;;;;7.88;5.65;;;;;;;-146.19;100.00;65364.44;10384054;28;20050;-63
2022/10/18 09:14:02;;;;;;;8.52;7.65;;;;;;;-146.19;100.00;65364.44;10390104;28;20069;-63
2022/10/18 09:19:37;;;;;;;35.80;17.55;;;;;;;-146.19;100.00;65364.44;10347907;28;20050;-62
2022/10/18 09:25:04;;;;;;;42.53;19.48;;;;;;;-146.19;100.00;65364.44;10392561;28;20041;-65
2022/10/18 09:30:39;;;;;;;41.65;19.23;;;;;;;-146.19;100.00;65364.44;10380506;28;20489;-65
2022/10/18 09:36:07;;;;;;;39.25;19.23;;;;;;;-146.19;100.00;65364.44;10357555;28;20104;-65
2022/10/18 09:41:38;;;;;;;38.63;18.00;;;;;;;-146.19;100.00;65364.44;10383128;28;20053;-65
2022/10/18 09:47:02;;;;;;;30.95;16.58;;;;;;;-146.19;100.00;65364.44;10369557;28;20046;-65
2022/10/18 09:52:30;;;;;;;30.73;16.88;;;;;;;-146.19;100.00;65364.44;10369635;28;20038;-64
2022/10/18 09:57:56;;;;;;;28.55;15.85;;;;;;;-146.19;100.00;65364.44;10361938;28;20042;-64
2022/10/18 10:03:15;;;;;;;28.95;15.95;;;;;;;-146.19;100.00;65364.44;10376642;28;20505;-65
2022/10/18 10:08:35;;;;;;;28.92;15.48;;;;;;;-146.19;100.00;65364.44;10392156;28;20049;-64
2022/10/18 10:14:22;;;;;;;27.55;14.18;;;;;;;-146.19;100.00;65364.44;10399265;28;20038;-64
2022/10/18 10:20:13;;;;;;;23.25;12.95;;;;;;;-146.19;100.00;65364.44;10377994;28;20041;-64
2022/10/18 10:25:34;;;;;;;22.70;12.77;;;;;;;-146.19;100.00;65364.44;10398811;28;20050;-64
2022/10/18 10:31:23;;;;;;;22.00;13.13;;;;;;;-146.19;100.00;65364.44;10378330;28;20089;-64
2022/10/18 10:36:47;;;;;;;19.33;12.03;;;;;;;-146.19;100.00;65364.44;10388715;28;20052;-65
2022/10/18 10:42:11;;;;;;;18.23;12.68;;;;;;;-146.19;100.00;65364.44;10394816;28;20297;-64
2022/10/18 10:47:32;;;;;;;18.73;11.65;;;;;;;-146.19;100.00;65364.44;10390330;28;20050;-64
2022/10/18 10:52:52;;;;;;;17.30;11.90;;;;;;;-146.19;100.00;65364.44;10384410;28;20448;-63
2022/10/18 10:58:16;;;;;;;16.67;11.57;;;;;;;-146.19;100.00;65364.44;10399546;28;20042;-63
2022/10/18 11:03:38;;;;;;;17.20;10.68;;;;;;;-146.19;100.00;65364.44;10358680;28;20046;-63
2022/10/18 11:08:59;;;;;;;15.90;10.77;;;;;;;-146.19;100.00;65364.44;10374486;28;20054;-63
2022/10/18 11:14:25;;;;;;;15.20;10.73;;;;;;;-146.19;100.00;65364.44;10385965;28;20049;-64
2022/10/18 11:20:10;;;;;;;14.82;11.05;;;;;;;-146.19;100.00;65364.44;10374217;28;20061;-64
2022/10/18 11:25:51;;;;;;;15.52;10.82;;;;;;;-146.19;100.00;65364.44;10391062;28;20054;-65
2022/10/18 11:31:28;;;;;;;20.48;13.25;;;;;;;-146.19;100.00;65364.44;10388525;28;20073;-61
2022/10/18 11:36:53;;;;;;;14.23;11.00;;;;;;;-146.19;100.00;65364.44;10373733;28;20046;-63
2022/10/18 11:42:33;;;;;;;14.13;10.75;;;;;;;-146.19;100.00;65364.44;10396676;28;20490;-63
2022/10/18 11:48:27;;;;;;;13.52;10.07;;;;;;;-146.19;100.00;65364.44;10370732;28;20049;-63
2022/10/18 11:54:23;;;;;;;13.23;9.63;;;;;;;-146.19;100.00;65364.44;10341278;28;20123;-63
2022/10/18 11:59:58;;;;;;;12.27;8.95;;;;;;;-146.19;100.00;65364.44;10363431;28;20480;-63
2022/10/18 12:05:17;;;;;;;12.38;8.93;;;;;;;-146.19;100.00;65364.44;10387314;28;20042;-64
2022/10/18 12:10:40;;;;;;;10.20;8.48;;;;;;;-146.19;100.00;65364.44;10395295;28;20509;-64
2022/10/18 12:16:03;;;;;;;12.15;9.20;;;;;;;-146.19;100.00;65364.44;10359077;28;20049;-63
2022/10/18 12:21:24;;;;;;;12.15;9.50;;;;;;;-146.19;100.00;65364.44;10357922;28;20038;-63
2022/10/18 12:26:47;;;;;;;10.95;8.90;;;;;;;-146.19;100.00;65364.44;10360205;28;20489;-63
2022/10/18 12:32:15;;;;;;;11.30;7.72;;;;;;;-146.19;100.00;65364.44;10372255;28;20042;-62
2022/10/18 12:37:56;;;;;;;10.85;8.73;;;;;;;-146.19;100.00;65364.44;10386399;28;20049;-63
2022/10/18 12:43:21;;;;;;;11.65;9.05;;;;;;;-146.19;100.00;65364.44;10367551;28;20054;-63
2022/10/18 12:48:49;;;;;;;11.20;9.55;;;;;;;-146.19;100.00;65364.44;10385862;28;20045;-63
2022/10/18 12:54:10;;;;;;;10.05;8.65;;;;;;;-146.19;100.00;65364.44;10390119;28;20041;-63
2022/10/18 12:59:38;;;;;;;10.48;9.32;;;;;;;-146.19;100.00;65364.44;10371271;28;20062;-63
2022/10/18 13:04:59;;;;;;;10.07;9.07;;;;;;;-146.19;100.00;65364.44;10385515;28;20523;-63
2022/10/18 13:10:34;;;;;;;10.15;8.52;;;;;;;-146.19;100.00;65364.44;10356481;28;20172;-63
2022/10/18 13:16:23;;;;;;;9.40;8.50;;;;;;;-146.19;100.00;65364.44;10384993;28;20064;-60
2022/10/18 13:22:01;;;;;;;;;;;;;;;-146.19;100.00;65364.44;10369991;28;20124;-60
2022/10/18 13:27:37;;;;;;;9.90;7.70;;;;;;;-146.19;100.00;65364.44;10373654;28;19928;-60
2022/10/18 13:33:26;;;;;;;9.00;8.10;;;;;;;-146.19;100.00;65364.44;10385440;28;20037;-60
2022/10/18 13:38:46;;;;;;;9.20;8.25;;;;;;;-146.19;100.00;65364.44;10377490;28;20065;-60
2022/10/18 13:44:38;;;;;;;8.75;7.95;;;;;;;-146.19;100.00;65364.44;10375471;28;20501;-59
2022/10/18 13:50:15;;;;;;;8.80;7.85;;;;;;;-146.19;100.00;65364.44;10384924;28;20046;-61
2022/10/18 13:56:01;;;;;;;8.18;7.45;;;;;;;-146.19;100.00;65364.44;10396660;28;20085;-61
2022/10/18 14:01:32;;;;;;;8.05;7.32;;;;;;;-146.19;100.00;65364.44;10353520;28;20054;-60
2022/10/18 14:06:51;;;;;;;8.73;7.75;;;;;;;-146.19;100.00;65364.44;10398006;28;20045;-61
2022/10/18 14:12:22;;;;;;;8.18;7.35;;;;;;;-146.19;100.00;65364.44;10379876;28;20050;-60
2022/10/18 14:17:51;;;;;;;8.50;7.60;;;;;;;-146.19;100.00;65364.44;10390518;28;20053;-60
2022/10/18 14:23:28;;;;;;;8.48;7.70;;;;;;;-146.19;100.00;65364.44;10393065;28;20048;-60
2022/10/18 14:29:04;;;;;;;7.32;6.63;;;;;;;-146.19;100.00;65364.44;10390904;28;20490;-61
2022/10/18 14:34:24;;;;;;;7.68;6.97;;;;;;;-146.19;100.00;65364.44;10390699;28;20452;-60
2022/10/18 14:39:43;;;;;;;7.82;7.13;;;;;;;-146.19;100.00;65364.44;10380043;28;20042;-60
2022/10/18 14:45:17;;;;;;;7.60;6.93;;;;;;;-146.19;100.00;65364.44;10376318;28;20057;-60
2022/10/18 14:50:36;;;;;;;7.07;6.47;;;;;;;-146.19;100.00;65364.44;10392160;28;20044;-59
2022/10/18 14:56:06;;;;;;;7.45;6.68;;;;;;;-146.19;100.00;65364.44;10390099;28;20421;-60
2022/10/18 15:01:28;;;;;;;6.57;5.97;;;;;;;-146.19;100.00;65364.44;10374765;28;20496;-61
2022/10/18 15:06:48;;;;;;;7.10;6.50;;;;;;;-146.19;100.00;65364.44;10402474;28;20053;-61
2022/10/18 15:12:11;;;;;;;7.90;7.20;;;;;;;-146.19;100.00;65364.44;10389625;28;20053;-60
2022/10/18 15:17:31;;;;;;;7.72;7.03;;;;;;;-146.19;100.00;65364.44;10374183;28;20104;-61
2022/10/18 15:22:51;;;;;;;7.40;6.70;;;;;;;-146.19;100.00;65364.44;10383684;28;20077;-60
2022/10/18 15:28:26;;;;;;;7.55;6.75;;;;;;;-146.19;100.00;65364.44;10389468;28;20041;-60
2022/10/18 15:33:45;;;;;;;7.45;6.78;;;;;;;-146.19;100.00;65364.44;10375027;28;20046;-61
2022/10/18 15:39:15;;;;;;;7.70;6.90;;;;;;;-146.19;100.00;65364.44;10378512;28;20034;-60
2022/10/18 15:44:52;;;;;;;7.45;6.70;;;;;;;-146.19;100.00;65364.44;10375430;28;20053;-60
2022/10/18 15:50:37;;;;;;;8.13;6.93;;;;;;;-146.19;100.00;65364.44;10383375;28;20529;-61
2022/10/18 15:56:27;;;;;;;7.75;6.95;;;;;;;-146.19;100.00;65364.44;10372664;28;20080;-61
2022/10/18 16:01:47;;;;;;;9.30;6.75;;;;;;;-146.19;100.00;65364.44;10361467;28;20531;-65
2022/10/18 16:07:09;;;;;;;9.98;7.00;;;;;;;-146.19;100.00;65364.44;10386610;28;20472;-64
2022/10/18 16:12:29;;;;;;;7.45;6.45;;;;;;;-146.19;100.00;65364.44;10384626;28;20089;-63
2022/10/18 16:17:48;;;;;;;8.10;6.55;;;;;;;-146.19;100.00;65364.44;10378591;28;20041;-65
2022/10/18 16:23:27;;;;;;;8.77;7.07;;;;;;;-146.19;100.00;65364.44;10393226;28;20041;-63
2022/10/18 16:28:47;;;;;;;11.83;6.70;;;;;;;-146.19;100.00;65364.44;10375690;28;20045;-63
2022/10/18 16:34:09;;;;;;;8.75;7.20;;;;;;;-146.19;100.00;65364.44;10385386;28;20034;-63
2022/10/18 16:39:33;;;;;;;7.78;6.68;;;;;;;-146.19;100.00;65364.44;10384074;28;20485;-62
2022/10/18 16:44:53;;;;;;;9.25;6.68;;;;;;;-146.19;100.00;65364.44;10385017;28;20103;-65
2022/10/18 16:50:15;;;;;;;7.47;6.22;;;;;;;-146.19;100.00;65364.44;10391857;28;20092;-65
2022/10/18 16:55:36;;;;;;;7.50;6.57;;;;;;;-146.19;100.00;65364.44;10385596;28;20048;-64
2022/10/18 17:00:57;;;;;;;7.68;6.60;;;;;;;-146.19;100.00;65364.44;10361428;28;20056;-65
2022/10/18 17:06:22;;;;;;;8.48;6.55;;;;;;;-146.19;100.00;65364.44;10386327;28;20054;-63
2022/10/18 17:11:42;;;;;;;7.47;6.20;;;;;;;-146.19;100.00;65364.44;10384899;28;20045;-64
2022/10/18 17:17:01;;;;;;;6.70;5.95;;;;;;;-146.19;100.00;65364.44;10372092;28;20104;-65
2022/10/18 17:22:21;;;;;;;7.05;6.10;;;;;;;-146.19;100.00;65364.44;10380075;28;20072;-63
2022/10/18 17:27:41;;;;;;;6.60;6.00;;;;;;;-146.19;100.00;65364.44;10376800;28;20048;-61
2022/10/18 17:33:00;;;;;;;7.80;5.93;;;;;;;-146.19;100.00;65364.44;10388811;28;20038;-58
2022/10/18 17:38:19;;;;;;;8.30;6.47;;;;;;;-146.19;100.00;65364.44;10441767;23;20539;-82
2022/10/18 17:43:42;;;;;;;7.80;6.35;;;;;;;-146.19;100.00;65364.44;10391513;28;20049;-83
2022/10/18 17:49:01;;;;;;;6.45;5.85;;;;;;;-146.19;100.00;65364.44;10415220;28;20041;-82
2022/10/18 17:54:21;;;;;;;13.20;8.50;;;;;;;-146.19;100.00;65364.44;10393356;28;20095;-83
2022/10/18 17:59:40;;;;;;;10.63;8.05;;;;;;;-146.19;100.00;65364.44;10395935;28;20042;-83
2022/10/18 18:05:01;;;;;;;15.98;7.32;;;;;;;-146.19;100.00;65364.44;10387599;28;20045;-82
2022/10/18 18:10:20;;;;;;;17.10;9.32;;;;;;;-146.19;100.00;65364.44;10395725;28;20045;-81
2022/10/18 18:15:39;;;;;;;17.35;9.63;;;;;;;-146.19;100.00;65364.44;10410049;28;20822;-82
2022/10/18 18:20:59;;;;;;;15.52;9.52;;;;;;;-146.19;100.00;65364.44;10432481;28;20064;-82
2022/10/18 18:26:19;;;;;;;17.15;10.05;;;;;;;-146.19;100.00;65364.44;10412862;28;20045;-82
2022/10/18 18:31:39;;;;;;;22.30;9.50;;;;;;;-146.19;100.00;65364.44;10387484;28;20133;-82
2022/10/18 18:36:58;;;;;;;23.48;11.43;;;;;;;-146.19;100.00;65364.44;10397044;28;20100;-83
2022/10/18 18:42:18;;;;;;;22.17;10.85;;;;;;;-146.19;100.00;65364.44;10416300;28;20045;-84
2022/10/18 18:47:38;;;;;;;21.60;10.70;;;;;;;-146.19;100.00;65364.44;10399765;28;20041;-85
2022/10/18 18:53:00;;;;;;;22.08;10.82;;;;;;;-146.19;100.00;65364.44;10391221;28;20477;-82
2022/10/18 18:58:19;;;;;;;19.27;10.23;;;;;;;-146.19;100.00;65364.44;10360889;28;20050;-83
2022/10/18 19:03:39;;;;;;;17.42;9.90;;;;;;;-146.19;100.00;65364.44;10411795;28;20037;-83
2022/10/18 19:09:01;;;;;;;16.50;9.50;;;;;;;-146.19;100.00;65364.44;10398432;28;20042;-82
2022/10/18 19:14:22;;;;;;;17.40;8.85;;;;;;;-146.19;100.00;65364.44;10397504;28;20042;-83
2022/10/18 19:19:42;;;;;;;18.77;9.18;;;;;;;-146.19;100.00;65364.44;10384663;28;20120;-81
2022/10/18 19:25:01;;;;;;;14.75;8.90;;;;;;;-146.19;100.00;65364.44;10407612;28;20064;-81
2022/10/18 19:30:21;;;;;;;15.15;8.98;;;;;;;-146.19;100.00;65364.44;10433986;28;20054;-82
2022/10/18 19:35:40;;;;;;;17.10;8.32;;;;;;;-146.19;100.00;65364.44;10433453;28;20045;-82
2022/10/18 19:40:59;;;;;;;13.13;7.90;;;;;;;-146.19;100.00;65364.44;10400738;28;20125;-81
2022/10/18 19:46:19;;;;;;;13.68;7.93;;;;;;;-146.19;100.00;65364.44;10414523;28;20095;-82
2022/10/18 19:51:38;;;;;;;13.07;8.20;;;;;;;-146.19;100.00;65364.44;10418691;28;20037;-82
2022/10/18 19:56:59;;;;;;;12.48;8.25;;;;;;;-146.19;100.00;65364.44;10405229;28;20074;-82
2022/10/18 20:02:18;;;;;;;13.70;7.38;;;;;;;-146.19;100.00;65364.44;10433171;28;20037;-81
2022/10/18 20:07:40;;;;;;;12.20;7.45;;;;;;;-146.19;100.00;65364.44;10418327;28;20120;-82
2022/10/18 20:12:59;;;;;;;11.80;8.10;;;;;;;-146.19;100.00;65364.44;10413090;28;20045;-81
2022/10/18 20:18:19;;;;;;;10.20;6.88;;;;;;;-146.19;100.00;65364.44;10417606;28;20072;-81
2022/10/18 20:23:39;;;;;;;11.18;7.20;;;;;;;-146.19;100.00;65364.44;10391141;28;20077;-83
2022/10/18 20:28:59;;;;;;;10.80;7.55;;;;;;;-146.19;100.00;65364.44;10404607;28;20132;-82
2022/10/18 20:34:24;;;;;;;12.90;7.38;;;;;;;-146.19;100.00;65364.44;10406658;28;20120;-83
2022/10/18 20:39:44;;;;;;;11.25;6.93;;;;;;;-146.19;100.00;65364.44;10407087;28;20405;-83
2022/10/18 20:45:06;;;;;;;10.68;7.25;;;;;;;-146.19;100.00;65364.44;10409284;28;20037;-83
2022/10/18 20:50:26;;;;;;;9.23;6.93;;;;;;;-146.19;100.00;65364.44;10389766;28;20049;-83
2022/10/18 20:55:45;;;;;;;10.00;6.63;;;;;;;-146.19;100.00;65364.44;10406672;28;20042;-83
2022/10/18 21:01:07;;;;;;;10.13;6.78;;;;;;;-146.19;100.00;65364.44;10394326;28;20080;-83
2022/10/18 21:06:35;;;;;;;9.98;6.78;;;;;;;-146.19;100.00;65364.44;10403201;28;20041;-84
2022/10/18 21:11:55;;;;;;;9.73;6.33;;;;;;;-146.19;100.00;65364.44;10400261;28;20058;-83
2022/10/18 21:17:14;;;;;;;11.27;6.82;;;;;;;-146.19;100.00;65364.44;10431271;28;20655;-83
2022/10/18 21:22:34;;;;;;;8.35;6.43;;;;;;;-146.19;100.00;65364.44;10430213;28;20489;-83
2022/10/18 21:27:55;;;;;;;10.75;6.72;;;;;;;-146.19;100.00;65364.44;10412809;28;20439;-83
2022/10/18 21:33:14;;;;;;;9.75;6.63;;;;;;;-146.19;100.00;65364.44;10405124;28;20560;-84
2022/10/18 21:38:36;;;;;;;11.30;6.20;;;;;;;-146.19;100.00;65364.44;10394124;28;20056;-85
2022/10/18 21:43:55;;;;;;;7.82;6.25;;;;;;;-146.19;100.00;65364.44;10410398;28;20043;-84
2022/10/18 21:49:16;;;;;;;8.18;5.85;;;;;;;-146.19;100.00;65364.44;10412401;28;20412;-85
2022/10/18 21:54:35;;;;;;;10.85;6.05;;;;;;;-146.19;100.00;65364.44;10414878;28;20033;-85
2022/10/18 21:59:54;;;;;;;9.52;6.03;;;;;;;-146.19;100.00;65364.44;10406336;28;20540;-84
2022/10/18 22:05:14;;;;;;;7.28;5.93;;;;;;;-146.19;100.00;65364.44;10422031;28;20128;-85
2022/10/18 22:10:33;;;;;;;7.38;6.07;;;;;;;-146.19;100.00;65364.44;10408207;28;20045;-85
2022/10/18 22:15:53;;;;;;;8.10;6.03;;;;;;;-146.19;100.00;65364.44;10394290;28;20057;-85
2022/10/18 22:21:15;;;;;;;7.72;5.75;;;;;;;-146.19;100.00;65364.44;10421836;28;20038;-85
2022/10/18 22:26:36;;;;;;;8.25;5.80;;;;;;;-146.19;100.00;65364.44;10410136;28;20059;-84
2022/10/18 22:31:55;;;;;;;6.68;5.80;;;;;;;-146.19;100.00;65364.44;10385671;28;20124;-84
2022/10/18 22:37:15;;;;;;;6.78;5.53;;;;;;;-146.19;100.00;65364.44;10423792;28;20045;-84
2022/10/18 22:42:35;;;;;;;8.10;5.80;;;;;;;-146.19;100.00;65364.44;10414996;28;20045;-83
2022/10/18 22:47:54;;;;;;;7.25;5.43;;;;;;;-146.19;100.00;65364.44;10392573;28;20199;-84
2022/10/18 22:53:13;;;;;;;6.20;5.22;;;;;;;-146.19;100.00;65364.44;10420354;28;20512;-85
2022/10/18 22:58:32;;;;;;;6.90;5.40;;;;;;;-146.19;100.00;65364.44;10394493;28;20099;-84
2022/10/18 23:03:53;;;;;;;6.80;5.47;;;;;;;-146.19;100.00;65364.44;10420171;28;20041;-85
2022/10/18 23:09:13;;;;;;;5.80;5.07;;;;;;;-146.19;100.00;65364.44;10399054;28;20049;-85
2022/10/18 23:14:32;;;;;;;6.38;5.28;;;;;;;-146.19;100.00;65364.44;10405825;28;20046;-82
2022/10/18 23:19:51;;;;;;;5.95;5.25;;;;;;;-146.19;100.00;65364.44;10432736;28;20038;-84
2022/10/18 23:25:10;;;;;;;5.97;4.97;;;;;;;-146.19;100.00;65364.44;10419775;28;20037;-84
2022/10/18 23:30:30;;;;;;;8.60;5.28;;;;;;;-146.19;100.00;65364.44;10426602;28;20107;-84
2022/10/18 23:35:49;;;;;;;8.52;5.28;;;;;;;-146.19;100.00;65364.44;10404752;28;20073;-84
2022/10/18 23:41:10;;;;;;;5.32;4.80;;;;;;;-146.19;100.00;65364.44;10400136;28;20049;-84
2022/10/18 23:46:30;;;;;;;5.78;5.15;;;;;;;-146.19;100.00;65364.44;10404236;28;20049;-84
2022/10/18 23:51:49;;;;;;;5.60;4.53;;;;;;;-146.19;100.00;65364.44;10410952;28;20042;-84
2022/10/18 23:57:09;;;;;;;5.35;4.70;;;;;;;-146.19;100.00;65364.44;10403474;28;20046;-84
